Time;durP1;ratioP1;P1;durP2;ratioP2;P2;SDS_P1;SDS_P2;PMS_P1;PMS_P2;Temp;Humidity;BMP_temperature;BMP_pressure;BME280_temperature;BME280_humidity;BME280_pressure;Samples;Min_cycle;Max_cycle;Signal;HPM_P1;HPM_P2
2021/09/24 00:00:53;;;;;;;13.93;7.10;;;;;;;7.78;100.00;100709.50;1706610;84;21127;-88
2021/09/24 00:03:19;;;;;;;16.80;7.58;;;;;;;7.64;100.00;100704.92;1706525;84;21041;-88
2021/09/24 00:05:45;;;;;;;18.07;7.17;;;;;;;7.56;100.00;100712.52;1706688;83;21173;-88
2021/09/24 00:08:10;;;;;;;14.90;7.30;;;;;;;7.45;100.00;100704.81;1706516;83;20874;-88
2021/09/24 00:10:37;;;;;;;15.38;7.12;;;;;;;7.31;100.00;100698.08;1706659;83;20894;-88
2021/09/24 00:13:03;;;;;;;18.52;8.35;;;;;;;7.23;100.00;100694.69;1706740;83;21446;-88
2021/09/24 00:15:29;;;;;;;19.42;7.75;;;;;;;7.11;100.00;100692.55;1706814;83;20953;-88
2021/09/24 00:17:56;;;;;;;25.37;7.40;;;;;;;7.04;100.00;100693.20;1706746;83;21213;-88
2021/09/24 00:20:22;;;;;;;17.92;8.13;;;;;;;7.00;100.00;100694.20;1706651;84;20970;-87
2021/09/24 00:22:48;;;;;;;21.23;8.00;;;;;;;6.93;100.00;100696.70;1706336;84;21477;-88
2021/09/24 00:25:14;;;;;;;19.12;6.92;;;;;;;6.83;100.00;100703.45;1706587;83;20886;-87
2021/09/24 00:27:40;;;;;;;16.77;7.20;;;;;;;6.76;100.00;100701.92;1706657;83;20842;-88
2021/09/24 00:30:08;;;;;;;17.55;7.72;;;;;;;6.67;100.00;100701.97;1706714;84;21048;-87
2021/09/24 00:32:34;;;;;;;14.75;7.90;;;;;;;6.59;100.00;100694.58;1706534;84;21017;-87
2021/09/24 00:35:00;;;;;;;16.32;7.17;;;;;;;6.50;100.00;100690.61;1706432;83;20977;-88
2021/09/24 00:37:26;;;;;;;18.87;8.55;;;;;;;6.49;100.00;100693.51;1706565;83;21582;-87
2021/09/24 00:39:52;;;;;;;14.90;7.40;;;;;;;6.43;100.00;100697.11;1706678;83;20962;-87
2021/09/24 00:42:19;;;;;;;18.20;7.72;;;;;;;6.39;100.00;100696.75;1706658;83;21148;-87
2021/09/24 00:44:48;;;;;;;23.70;8.88;;;;;;;6.33;100.00;100691.80;1706620;84;21056;-87
2021/09/24 00:47:16;;;;;;;18.75;8.53;;;;;;;6.30;100.00;100692.25;1706698;84;20981;-87
2021/09/24 00:49:42;;;;;;;19.40;9.65;;;;;;;6.22;100.00;100694.44;1706622;83;21061;-84
2021/09/24 00:52:09;;;;;;;19.55;9.30;;;;;;;6.13;100.00;100695.28;1706662;83;21044;-88
2021/09/24 00:54:35;;;;;;;16.82;8.18;;;;;;;6.09;100.00;100690.92;1706697;83;21124;-87
2021/09/24 00:57:03;;;;;;;22.60;8.90;;;;;;;6.04;100.00;100688.63;1706526;84;20998;-87
2021/09/24 00:59:30;;;;;;;18.60;8.88;;;;;;;5.99;100.00;100695.17;1706765;83;21017;-87
2021/09/24 01:01:57;;;;;;;16.55;8.15;;;;;;;5.94;100.00;100688.34;1706698;83;20978;-87
2021/09/24 01:04:23;;;;;;;20.20;9.05;;;;;;;5.92;100.00;100688.55;1706637;83;21048;-86
2021/09/24 01:06:50;;;;;;;20.60;9.30;;;;;;;5.90;100.00;100693.30;1706635;83;21886;-87
2021/09/24 01:09:18;;;;;;;22.73;8.68;;;;;;;5.85;100.00;100696.67;1706697;83;21439;-87
2021/09/24 01:11:44;;;;;;;23.98;7.10;;;;;;;5.80;100.00;100694.37;1706671;83;21041;-87
2021/09/24 01:14:11;;;;;;;39.38;8.25;;;;;;;5.73;100.00;100697.64;1706846;84;21017;-87
2021/09/24 01:16:37;;;;;;;19.52;7.95;;;;;;;5.69;100.00;100696.75;1706743;84;20981;-87
2021/09/24 01:19:04;;;;;;;23.30;8.03;;;;;;;5.68;100.00;100698.33;1706487;83;22023;-87
2021/09/24 01:21:32;;;;;;;20.40;8.20;;;;;;;5.66;100.00;100703.08;1706551;83;21544;-87
2021/09/24 01:23:58;;;;;;;18.45;8.08;;;;;;;5.62;100.00;100690.69;1706363;83;21005;-87
2021/09/24 01:26:24;;;;;;;43.80;8.23;;;;;;;5.62;100.00;100688.02;1706663;83;21615;-86
2021/09/24 01:28:50;;;;;;;56.35;8.88;;;;;;;5.61;100.00;100694.91;1706655;83;20870;-87
2021/09/24 01:31:16;;;;;;;27.65;7.92;;;;;;;5.59;100.00;100690.30;1706725;84;21090;-87
2021/09/24 01:33:47;;;;;;;46.50;9.10;;;;;;;5.58;100.00;100690.00;1706982;82;20961;-87
2021/09/24 01:36:13;;;;;;;27.05;8.75;;;;;;;5.57;100.00;100691.87;1711538;82;21092;-87
2021/09/24 01:38:40;;;;;;;17.12;7.78;;;;;;;5.57;100.00;100697.73;1706693;83;21017;-87
2021/09/24 01:41:07;;;;;;;22.25;9.30;;;;;;;5.57;100.00;100691.06;1706678;84;21508;-87
2021/09/24 01:43:35;;;;;;;27.22;9.43;;;;;;;5.57;100.00;100689.20;1706645;83;21092;-86
2021/09/24 01:46:03;;;;;;;37.15;10.18;;;;;;;5.53;100.00;100692.03;1706417;84;21004;-92
2021/09/24 01:48:29;;;;;;;30.30;9.95;;;;;;;5.53;100.00;100695.20;1706733;83;21052;-87
2021/09/24 01:50:56;;;;;;;41.70;10.82;;;;;;;5.49;100.00;100696.70;1706677;83;20934;-87
2021/09/24 01:53:22;;;;;;;67.35;11.40;;;;;;;5.44;100.00;100694.19;1706819;84;21324;-85
2021/09/24 01:55:48;;;;;;;34.85;11.12;;;;;;;5.44;100.00;100692.01;1706595;83;21919;-87
2021/09/24 01:58:15;;;;;;;74.07;11.40;;;;;;;5.45;100.00;100694.47;1706432;83;21486;-87
2021/09/24 02:00:42;;;;;;;49.20;12.20;;;;;;;5.45;100.00;100693.66;1706439;84;21013;-87
2021/09/24 02:03:08;;;;;;;28.67;12.75;;;;;;;5.41;100.00;100698.64;1706645;83;21034;-87
2021/09/24 02:05:34;;;;;;;61.85;11.60;;;;;;;5.43;100.00;100695.20;1706766;84;21069;-87
2021/09/24 02:08:00;;;;;;;23.95;11.53;;;;;;;5.41;100.00;100689.30;1707029;83;21308;-87
2021/09/24 02:10:27;;;;;;;46.18;11.97;;;;;;;5.41;100.00;100689.30;1706506;84;20941;-87
2021/09/24 02:12:57;;;;;;;60.50;11.38;;;;;;;5.41;100.00;100687.11;1706389;84;21687;-87
2021/09/24 02:15:20;;;;;;;52.85;11.65;;;;;;;5.36;100.00;100683.79;1703458;84;20989;-87
2021/09/24 02:17:46;;;;;;;44.33;12.10;;;;;;;5.32;100.00;100682.58;1706668;84;20977;-87
2021/09/24 02:20:12;;;;;;;45.50;12.50;;;;;;;5.31;100.00;100681.48;1706659;84;21176;-87
2021/09/24 02:22:39;;;;;;;60.25;11.10;;;;;;;5.29;100.00;100677.69;1706579;84;21237;-87
2021/09/24 02:25:07;;;;;;;39.33;11.88;;;;;;;5.28;100.00;100676.59;1706780;83;21053;-87
2021/09/24 02:27:33;;;;;;;28.62;10.48;;;;;;;5.26;100.00;100674.13;1706818;83;21521;-87
2021/09/24 02:29:59;;;;;;;32.85;11.25;;;;;;;5.21;100.00;100669.47;1706717;83;20938;-87
2021/09/24 02:32:24;;;;;;;25.88;11.65;;;;;;;5.19;100.00;100672.88;1706698;84;21151;-87
2021/09/24 02:34:51;;;;;;;40.95;14.63;;;;;;;5.18;100.00;100677.12;1706839;83;21041;-87
2021/09/24 02:37:16;;;;;;;34.33;15.63;;;;;;;5.20;100.00;100673.69;1721207;82;20988;-87
2021/09/24 02:39:42;;;;;;;38.53;15.48;;;;;;;5.23;100.00;100676.75;1722000;83;20869;-87
2021/09/24 02:42:08;;;;;;;38.38;15.63;;;;;;;5.27;100.00;100675.78;1722336;82;20890;-87
2021/09/24 02:44:34;;;;;;;39.35;15.43;;;;;;;5.28;100.00;100669.91;1721688;83;21170;-86
2021/09/24 02:47:00;;;;;;;40.08;15.38;;;;;;;5.29;100.00;100675.54;1721886;82;21005;-88
2021/09/24 02:49:26;;;;;;;34.13;15.83;;;;;;;5.28;100.00;100673.92;1720271;83;20857;-88
2021/09/24 02:51:52;;;;;;;33.58;15.10;;;;;;;5.27;100.00;100678.45;1722003;82;20921;-86
2021/09/24 02:54:18;;;;;;;38.05;16.10;;;;;;;5.27;100.00;100674.45;1699746;83;20976;-88
2021/09/24 02:56:44;;;;;;;34.95;16.20;;;;;;;5.24;100.00;100669.55;1721912;83;21109;-87
2021/09/24 02:59:10;;;;;;;37.40;17.17;;;;;;;5.23;100.00;100669.23;1721834;82;20936;-87
2021/09/24 03:01:36;;;;;;;35.13;15.38;;;;;;;5.23;100.00;100668.73;1722072;82;20873;-87
2021/09/24 03:04:02;;;;;;;41.05;17.87;;;;;;;5.24;100.00;100672.22;1722007;82;20882;-88
2021/09/24 03:06:28;;;;;;;37.80;16.40;;;;;;;5.23;100.00;100667.40;1721999;82;20984;-87
2021/09/24 03:08:54;;;;;;;36.13;15.85;;;;;;;5.23;100.00;100667.89;1721973;83;21135;-88
2021/09/24 03:11:20;;;;;;;37.15;16.17;;;;;;;5.17;100.00;100661.58;1721979;83;21619;-87
2021/09/24 03:13:46;;;;;;;39.30;16.02;;;;;;;5.16;100.00;100661.82;1721860;82;21551;-86
2021/09/24 03:16:18;;;;;;;39.42;16.37;;;;;;;5.15;100.00;100662.88;1722160;83;21068;-87
2021/09/24 03:18:40;;;;;;;43.83;16.73;;;;;;;5.14;100.00;100664.70;1718256;83;20985;-87
2021/09/24 03:21:06;;;;;;;37.15;16.52;;;;;;;5.14;100.00;100661.22;1721969;82;21066;-87
2021/09/24 03:23:32;;;;;;;43.60;18.00;;;;;;;5.14;100.00;100658.55;1721875;82;20877;-88
2021/09/24 03:25:58;;;;;;;42.85;16.80;;;;;;;5.13;100.00;100666.27;1721883;82;20893;-88
2021/09/24 03:28:24;;;;;;;43.40;17.77;;;;;;;5.10;100.00;100660.84;1721920;83;21555;-86
2021/09/24 03:30:50;;;;;;;49.60;17.50;;;;;;;5.09;100.00;100661.90;1721976;82;21043;-87
2021/09/24 03:33:16;;;;;;;40.28;17.45;;;;;;;5.07;100.00;100659.95;1721692;82;21188;-87
2021/09/24 03:35:42;;;;;;;44.10;19.02;;;;;;;5.08;100.00;100658.91;1721016;81;21024;-86
2021/09/24 03:38:08;;;;;;;37.93;18.12;;;;;;;5.08;100.00;100658.91;1717462;83;21051;-87
2021/09/24 03:40:34;;;;;;;40.98;16.80;;;;;;;5.10;100.00;100661.38;1717153;83;20961;-88
2021/09/24 03:43:00;;;;;;;36.42;17.80;;;;;;;5.11;100.00;100660.33;1717127;83;20933;-87
2021/09/24 03:45:28;;;;;;;38.65;17.57;;;;;;;5.11;100.00;100654.98;1717015;83;21654;-86
2021/09/24 03:47:54;;;;;;;39.33;17.57;;;;;;;5.11;100.00;100649.12;1716789;83;20996;-87
2021/09/24 03:50:21;;;;;;;35.60;16.97;;;;;;;5.11;100.00;100644.30;1717123;83;21133;-87
2021/09/24 03:52:46;;;;;;;41.10;18.02;;;;;;;5.12;100.00;100644.09;1717137;83;21480;-88
2021/09/24 03:55:12;;;;;;;38.70;16.23;;;;;;;5.16;100.00;100638.59;1717136;83;20877;-87
2021/09/24 03:57:38;;;;;;;36.40;16.45;;;;;;;5.21;100.00;100632.59;1717147;83;21084;-87
2021/09/24 04:00:06;;;;;;;41.28;16.87;;;;;;;5.27;100.00;100624.20;1717158;83;20885;-87
2021/09/24 04:02:32;;;;;;;43.98;18.80;;;;;;;5.32;100.00;100620.31;1716862;83;21566;-87
2021/09/24 04:04:58;;;;;;;55.05;22.27;;;;;;;5.40;100.00;100622.17;1717225;83;20845;-87
2021/09/24 04:07:24;;;;;;;52.00;21.80;;;;;;;5.52;100.00;100624.09;1717209;83;20849;-87
2021/09/24 04:09:49;;;;;;;41.37;17.95;;;;;;;5.61;100.00;100623.54;1716975;83;21886;-87
2021/09/24 04:12:15;;;;;;;37.03;16.93;;;;;;;5.70;100.00;100626.19;1717098;83;20956;-86
2021/09/24 04:14:41;;;;;;;35.70;15.43;;;;;;;5.84;100.00;100622.81;1717118;83;20924;-87
2021/09/24 04:17:07;;;;;;;41.28;15.23;;;;;;;5.99;100.00;100618.41;1717152;83;20873;-87
2021/09/24 04:19:33;;;;;;;34.45;14.65;;;;;;;6.19;100.00;100618.11;1717086;83;21012;-87
2021/09/24 04:22:08;;;;;;;31.12;13.98;;;;;;;6.52;100.00;100618.09;1717186;83;21097;-87
2021/09/24 04:24:34;;;;;;;28.70;13.58;;;;;;;7.33;100.00;100612.88;1716852;83;21024;-87
2021/09/24 04:27:00;;;;;;;29.10;12.43;;;;;;;8.26;100.00;100608.09;1717304;83;21050;-87
2021/09/24 04:29:26;;;;;;;29.82;12.07;;;;;;;8.77;100.00;100606.23;1717179;83;20889;-87
2021/09/24 04:31:52;;;;;;;27.10;12.80;;;;;;;9.12;100.00;100602.36;1717191;83;20893;-88
2021/09/24 04:34:18;;;;;;;27.67;11.97;;;;;;;9.87;100.00;100610.20;1716992;83;21039;-88
2021/09/24 04:36:44;;;;;;;31.15;12.15;;;;;;;10.48;100.00;100601.87;1712945;82;20886;-88
2021/09/24 04:39:10;;;;;;;25.10;12.40;;;;;;;10.59;100.00;100599.49;1708881;84;20917;-88
2021/09/24 04:41:36;;;;;;;30.37;12.50;;;;;;;10.66;100.00;100598.20;1709067;83;21414;-89
2021/09/24 04:44:03;;;;;;;23.73;11.73;;;;;;;10.79;100.00;100600.97;1708933;83;21012;-89
2021/09/24 04:46:29;;;;;;;26.93;12.80;;;;;;;11.18;100.00;100600.64;1708647;83;21109;-89
2021/09/24 04:48:55;;;;;;;23.80;12.40;;;;;;;12.07;100.00;100601.42;1708885;83;20969;-88
2021/09/24 04:51:21;;;;;;;22.48;11.90;;;;;;;12.88;100.00;100605.09;1709000;84;21435;-92
2021/09/24 04:53:47;;;;;;;24.52;11.75;;;;;;;13.39;100.00;100594.13;1708846;83;21045;-89
2021/09/24 04:56:13;;;;;;;19.35;10.32;;;;;;;14.21;100.00;100589.52;1708811;84;20985;-89
2021/09/24 04:58:39;;;;;;;22.35;11.12;;;;;;;15.43;100.00;100584.67;1708983;83;21890;-89
2021/09/24 05:01:05;;;;;;;20.97;11.22;;;;;;;16.55;100.00;100587.00;1698734;84;20977;-91
2021/09/24 05:03:31;;;;;;;17.27;9.93;;;;;;;17.35;100.00;100583.55;1698815;83;20854;-89
2021/09/24 05:05:57;;;;;;;17.35;10.28;;;;;;;18.05;100.00;100589.06;1698760;83;20936;-90
2021/09/24 05:08:23;;;;;;;14.70;9.25;;;;;;;18.95;100.00;100593.03;1698742;83;21709;-91
2021/09/24 05:10:48;;;;;;;20.10;9.98;;;;;;;20.01;100.00;100583.88;1699071;83;21101;-90
2021/09/24 05:13:14;;;;;;;16.00;9.53;;;;;;;20.93;100.00;100590.31;1698774;84;21040;-90
2021/09/24 05:15:40;;;;;;;15.95;9.68;;;;;;;21.87;100.00;100583.19;1698727;84;20989;-89
2021/09/24 05:18:06;;;;;;;16.85;9.53;;;;;;;22.44;100.00;100583.30;1698711;84;20870;-89
2021/09/24 05:20:33;;;;;;;16.52;10.40;;;;;;;22.33;82.83;100577.20;1698466;84;21639;-89
2021/09/24 05:23:00;;;;;;;15.83;9.90;;;;;;;22.36;91.23;100575.16;1699049;83;21084;-88
2021/09/24 05:25:26;;;;;;;16.65;9.60;;;;;;;23.12;86.22;100577.30;1698693;84;20993;-90
2021/09/24 05:27:52;;;;;;;13.75;8.83;;;;;;;23.84;78.82;100575.31;1698780;83;21540;-88
2021/09/24 05:30:20;;;;;;;14.53;9.20;;;;;;;24.62;70.59;100575.27;1675063;84;21033;-90
2021/09/24 05:32:46;;;;;;;14.90;9.08;;;;;;;25.20;62.61;100576.06;1706509;83;21060;-88
2021/09/24 05:35:14;;;;;;;15.20;9.83;;;;;;;25.16;64.21;100573.81;1708746;83;21065;-91
2021/09/24 05:37:42;;;;;;;13.90;9.78;;;;;;;25.63;57.71;100567.34;1708171;83;21056;-88
2021/09/24 05:40:09;;;;;;;14.15;9.53;;;;;;;26.09;59.32;100564.74;1706752;84;20974;-89
2021/09/24 05:42:35;;;;;;;15.98;9.95;;;;;;;26.76;56.86;100556.03;1706704;83;21021;-89
2021/09/24 05:45:01;;;;;;;15.18;10.48;;;;;;;27.37;54.33;100563.28;1706639;84;20891;-91
2021/09/24 05:47:27;;;;;;;15.68;9.60;;;;;;;27.84;49.96;100555.00;1706372;84;21077;-89
2021/09/24 05:49:53;;;;;;;14.45;9.90;;;;;;;28.32;50.47;100554.30;1706454;84;20921;-90
2021/09/24 05:52:19;;;;;;;16.02;9.70;;;;;;;28.90;47.61;100558.38;1706733;83;20970;-93
2021/09/24 05:54:45;;;;;;;15.15;10.25;;;;;;;28.93;46.33;100566.72;1706842;84;21029;-93
2021/09/24 05:57:11;;;;;;;14.03;9.58;;;;;;;29.35;46.25;100573.73;1706842;84;20962;-95
2021/09/24 05:59:37;;;;;;;12.68;9.33;;;;;;;29.54;42.94;100566.31;1706746;83;21394;-91
2021/09/24 06:02:04;;;;;;;16.67;9.40;;;;;;;29.83;43.26;100565.26;1706675;83;20922;-92
2021/09/24 06:04:30;;;;;;;12.88;9.85;;;;;;;30.59;43.20;100552.88;1706237;83;21005;-89
2021/09/24 06:06:56;;;;;;;12.00;8.48;;;;;;;31.05;40.82;100546.50;1706666;84;20843;-89
2021/09/24 06:09:22;;;;;;;11.95;8.78;;;;;;;31.38;39.30;100546.63;1706724;84;20992;-90
2021/09/24 06:11:48;;;;;;;15.15;9.75;;;;;;;31.19;39.17;100552.03;1706727;84;21135;-89
2021/09/24 06:14:14;;;;;;;11.93;9.20;;;;;;;31.22;38.00;100544.27;1706526;84;20878;-89
2021/09/24 06:16:40;;;;;;;11.25;9.18;;;;;;;31.31;36.48;100539.06;1706481;83;20974;-88
2021/09/24 06:19:06;;;;;;;12.98;9.75;;;;;;;31.40;35.60;100535.87;1706484;84;20866;-88
2021/09/24 06:21:34;;;;;;;16.90;9.58;;;;;;;31.05;35.45;100536.15;1706751;83;21025;-88
2021/09/24 06:24:00;;;;;;;12.68;9.23;;;;;;;31.35;36.48;100532.11;1706438;83;21133;-87
2021/09/24 06:26:26;;;;;;;11.05;8.45;;;;;;;31.69;35.40;100537.94;1706589;84;20874;-89
2021/09/24 06:28:52;;;;;;;11.18;8.13;;;;;;;31.49;33.09;100533.45;1706571;83;21459;-88
2021/09/24 06:31:18;;;;;;;9.13;7.15;;;;;;;31.39;33.24;100537.09;1706578;84;21256;-85
2021/09/24 06:33:44;;;;;;;14.87;5.90;;;;;;;31.43;34.44;100530.28;1706530;84;21002;-84
2021/09/24 06:36:10;;;;;;;7.83;6.53;;;;;;;31.41;33.42;100523.53;1706729;84;21163;-85
2021/09/24 06:38:37;;;;;;;11.40;7.55;;;;;;;31.36;32.37;100516.40;1706168;81;20970;-83
2021/09/24 06:41:03;;;;;;;11.55;7.92;;;;;;;31.58;32.54;100512.11;1706596;83;21521;-83
2021/09/24 06:43:29;;;;;;;12.05;7.92;;;;;;;31.55;31.00;100516.50;1706587;83;20974;-82
2021/09/24 06:45:55;;;;;;;15.00;8.18;;;;;;;31.43;31.61;100508.00;1705468;83;21131;-82
2021/09/24 06:48:21;;;;;;;10.08;6.90;;;;;;;31.78;31.03;100506.84;1706526;83;21742;-83
2021/09/24 06:50:47;;;;;;;9.00;6.55;;;;;;;31.93;30.40;100513.14;1706545;83;21478;-81
2021/09/24 06:53:12;;;;;;;8.93;6.55;;;;;;;32.18;29.93;100509.59;1706655;83;20902;-82
2021/09/24 06:55:39;;;;;;;10.23;7.08;;;;;;;31.97;30.29;100504.94;1706693;84;21480;-82
2021/09/24 06:58:04;;;;;;;11.78;7.22;;;;;;;32.01;29.76;100509.91;1706661;84;20993;-83
2021/09/24 07:00:30;;;;;;;8.70;6.75;;;;;;;32.18;30.63;100500.41;1703119;84;21639;-83
2021/09/24 07:02:56;;;;;;;12.03;6.30;;;;;;;32.58;30.06;100505.27;1706513;83;20839;-82
2021/09/24 07:05:22;;;;;;;8.73;6.20;;;;;;;32.38;29.46;100506.23;1706787;84;20854;-85
2021/09/24 07:07:49;;;;;;;9.90;6.22;;;;;;;32.14;29.12;100499.05;1706575;83;21503;-83
2021/09/24 07:10:15;;;;;;;8.53;5.65;;;;;;;31.67;29.13;100497.14;1706357;84;21541;-82
2021/09/24 07:12:42;;;;;;;7.05;5.72;;;;;;;31.91;30.51;100488.45;1706821;84;21011;-83
2021/09/24 07:15:09;;;;;;;6.40;4.95;;;;;;;32.13;29.62;100490.50;1706378;84;20978;-82
2021/09/24 07:17:34;;;;;;;6.50;5.00;;;;;;;32.31;29.81;100488.35;1706750;84;21025;-82
2021/09/24 07:20:07;;;;;;;12.78;5.28;;;;;;;32.79;28.63;100493.09;1706809;84;21423;-83
2021/09/24 07:22:33;;;;;;;8.13;4.87;;;;;;;32.82;27.74;100491.48;1707012;84;21021;-83
2021/09/24 07:24:59;;;;;;;8.35;5.00;;;;;;;31.14;28.50;100484.22;1706844;84;21096;-82
2021/09/24 07:27:25;;;;;;;7.97;5.42;;;;;;;29.51;28.95;100492.11;1706839;84;21630;-79
2021/09/24 07:29:52;;;;;;;8.43;5.30;;;;;;;27.84;31.12;100487.73;1706616;84;21478;-82
2021/09/24 07:32:18;;;;;;;8.83;5.20;;;;;;;28.04;33.53;100483.58;1706586;84;21009;-83
2021/09/24 07:34:44;;;;;;;9.48;5.25;;;;;;;28.76;31.50;100477.23;1706784;84;20978;-81
2021/09/24 07:37:12;;;;;;;7.75;5.42;;;;;;;27.88;31.38;100461.45;1706632;82;21096;-81
2021/09/24 07:39:39;;;;;;;7.67;4.83;;;;;;;26.57;33.77;100468.47;1718459;81;21005;-84
2021/09/24 07:42:05;;;;;;;9.28;5.15;;;;;;;25.73;33.83;100463.23;1736345;82;20975;-82
2021/09/24 07:44:31;;;;;;;7.22;4.80;;;;;;;24.58;35.09;100468.27;1735990;82;21522;-84
2021/09/24 07:46:56;;;;;;;13.62;5.08;;;;;;;23.64;35.85;100453.25;1736230;82;20856;-83
2021/09/24 07:49:22;;;;;;;9.95;5.40;;;;;;;22.68;37.28;100448.48;1736220;82;21134;-84
2021/09/24 07:51:48;;;;;;;8.50;5.15;;;;;;;21.86;38.57;100445.20;1736029;82;21032;-83
2021/09/24 07:54:14;;;;;;;7.50;5.12;;;;;;;21.86;40.38;100447.95;1736001;82;20954;-83
2021/09/24 07:56:40;;;;;;;9.95;5.62;;;;;;;22.78;41.81;100438.97;1732243;82;20863;-83
2021/09/24 07:59:07;;;;;;;8.85;5.08;;;;;;;24.54;40.58;100445.36;1736001;82;21479;-85
2021/09/24 08:01:34;;;;;;;10.80;5.42;;;;;;;24.90;37.56;100437.88;1735991;81;21446;-83
2021/09/24 08:03:59;;;;;;;8.20;4.20;;;;;;;25.59;38.06;100430.66;1736082;82;20907;-83
2021/09/24 08:06:25;;;;;;;7.10;4.70;;;;;;;26.34;36.49;100426.23;1736109;82;20879;-82
2021/09/24 08:08:51;;;;;;;8.08;4.42;;;;;;;26.19;35.56;100430.14;1732291;82;21005;-83
2021/09/24 08:11:17;;;;;;;6.87;4.05;;;;;;;26.19;35.56;100430.14;1736145;82;20847;-83
2021/09/24 08:13:43;;;;;;;10.15;4.00;;;;;;;26.66;35.57;100422.59;1735915;81;21544;-84
2021/09/24 08:16:09;;;;;;;4.53;3.35;;;;;;;27.26;34.25;100425.95;1736079;82;20921;-82
2021/09/24 08:18:37;;;;;;;5.58;3.50;;;;;;;27.89;34.16;100416.77;1736046;82;20979;-82
2021/09/24 08:21:04;;;;;;;7.25;3.72;;;;;;;28.56;32.53;100424.03;1735878;81;21611;-83
2021/09/24 08:23:34;;;;;;;4.33;3.20;;;;;;;29.01;32.77;100424.66;1736174;82;20962;-83
2021/09/24 08:26:00;;;;;;;4.40;3.00;;;;;;;29.31;31.41;100408.34;1735974;82;21650;-84
2021/09/24 08:28:26;;;;;;;4.87;3.08;;;;;;;29.46;31.69;100413.34;1736038;82;21101;-83
2021/09/24 08:30:52;;;;;;;8.08;2.92;;;;;;;29.65;30.75;100411.03;1713272;82;20990;-84
2021/09/24 08:33:18;;;;;;;9.60;2.62;;;;;;;29.44;29.65;100413.72;1732214;82;21608;-84
2021/09/24 08:35:44;;;;;;;8.13;3.15;;;;;;;27.90;30.36;100412.80;1736077;82;21054;-85
2021/09/24 08:38:11;;;;;;;15.38;3.62;;;;;;;27.29;32.38;100403.84;1741995;80;21074;-83
2021/09/24 08:40:38;;;;;;;17.62;3.30;;;;;;;26.81;32.35;100412.52;1751371;81;20981;-83
2021/09/24 08:43:04;;;;;;;19.05;3.10;;;;;;;25.77;32.90;100410.86;1751418;81;21498;-83
2021/09/24 08:45:32;;;;;;;18.30;3.37;;;;;;;24.87;33.73;100414.59;1751673;81;20963;-83
2021/09/24 08:48:03;;;;;;;22.82;4.25;;;;;;;24.39;34.79;100416.64;1751499;81;21458;-83
2021/09/24 08:50:32;;;;;;;31.12;3.95;;;;;;;23.94;35.44;100409.66;1751704;82;21120;-84
2021/09/24 08:52:59;;;;;;;26.00;4.00;;;;;;;23.29;35.36;100397.47;1751929;81;20958;-83
2021/09/24 08:55:27;;;;;;;20.90;4.08;;;;;;;22.93;37.93;100408.01;1751211;81;21552;-81
2021/09/24 08:57:53;;;;;;;27.45;3.67;;;;;;;22.63;37.89;100410.26;1751656;81;21497;-82
2021/09/24 09:00:20;;;;;;;18.10;3.60;;;;;;;22.24;39.07;100407.09;1751857;81;20965;-82
2021/09/24 09:03:08;;;;;;;24.25;3.60;;;;;;;21.72;38.65;100408.47;1728383;82;21201;-82
2021/09/24 09:05:41;;;;;;;24.05;3.20;;;;;;;21.33;39.53;100405.12;1750860;81;21501;-83
2021/09/24 09:08:27;;;;;;;18.37;2.83;;;;;;;20.99;40.99;100410.91;1694219;84;21046;-83
2021/09/24 09:11:07;;;;;;;17.30;3.15;;;;;;;20.76;41.95;100410.42;1693936;84;21522;-83
2021/09/24 09:13:39;;;;;;;23.73;2.80;;;;;;;20.50;42.90;100415.48;1694038;84;21008;-82
2021/09/24 09:16:24;;;;;;;20.25;3.80;;;;;;;20.47;42.98;100415.32;1693838;84;21307;-82
2021/09/24 09:19:01;;;;;;;21.10;2.92;;;;;;;20.03;42.44;100411.98;1694166;84;21697;-82
2021/09/24 09:21:27;;;;;;;23.22;4.25;;;;;;;19.76;44.28;100407.17;1624879;87;21126;-82
2021/09/24 09:23:54;;;;;;;19.27;3.17;;;;;;;19.88;44.94;100409.23;1627086;88;21496;-82
2021/09/24 09:26:22;;;;;;;27.60;3.25;;;;;;;19.81;44.35;100408.94;1627040;86;21567;-83
2021/09/24 09:28:59;;;;;;;35.75;3.30;;;;;;;19.61;44.79;100401.62;1627047;88;21635;-83
2021/09/24 09:31:33;;;;;;;19.10;2.67;;;;;;;19.24;45.38;100401.22;1616277;87;21046;-79
2021/09/24 09:34:03;;;;;;;20.32;2.37;;;;;;;19.08;45.58;100400.09;1627083;87;21058;-82
2021/09/24 09:36:37;;;;;;;9.73;2.50;;;;;;;19.32;47.42;100404.25;1623894;88;21086;-83
2021/09/24 09:39:12;;;;;;;10.23;1.98;;;;;;;19.18;46.13;100392.16;1635214;87;21644;-83
2021/09/24 09:41:54;;;;;;;7.33;2.25;;;;;;;19.04;46.42;100383.55;1641044;87;21182;-83
2021/09/24 09:44:27;;;;;;;8.48;2.00;;;;;;;18.95;46.71;100381.38;1640316;87;21019;-84
2021/09/24 09:46:53;;;;;;;3.17;1.95;;;;;;;18.98;47.68;100377.20;1583827;90;21577;-84
2021/09/24 09:49:19;;;;;;;6.25;2.42;;;;;;;18.92;47.41;100371.10;1586954;90;21085;-80
2021/09/24 09:51:48;;;;;;;6.05;2.20;;;;;;;18.88;48.28;100376.15;1592771;90;21136;-83
2021/09/24 09:54:30;;;;;;;8.68;2.30;;;;;;;18.73;48.66;100368.67;1592698;90;21600;-84
2021/09/24 09:57:22;;;;;;;4.80;2.40;;;;;;;18.61;49.53;100361.08;1592924;90;21537;-83
2021/09/24 09:59:54;;;;;;;7.65;2.87;;;;;;;18.34;49.18;100359.44;1589854;90;21102;-82
2021/09/24 10:02:29;;;;;;;6.70;2.55;;;;;;;18.12;52.63;100350.80;1590223;90;21146;-84
2021/09/24 10:04:57;;;;;;;5.30;2.90;;;;;;;18.22;52.75;100357.88;1616217;87;21078;-84
2021/09/24 10:07:27;;;;;;;10.48;3.40;;;;;;;18.19;53.02;100348.97;1648803;87;21622;-81
2021/09/24 10:10:14;;;;;;;6.25;2.70;;;;;;;18.16;51.11;100349.61;1626815;87;21051;-85
2021/09/24 10:12:44;;;;;;;4.00;2.65;;;;;;;17.87;52.18;100347.42;1649057;87;21196;-85
2021/09/24 10:15:14;;;;;;;4.75;2.90;;;;;;;17.69;54.21;100345.95;1648893;85;21047;-84
2021/09/24 10:17:41;;;;;;;8.30;3.92;;;;;;;17.62;55.39;100333.91;1648841;87;21566;-86
2021/09/24 10:20:10;;;;;;;6.95;3.20;;;;;;;17.38;55.56;100336.95;1649034;87;21171;-85
2021/09/24 10:22:36;;;;;;;8.70;3.55;;;;;;;17.25;57.21;100329.12;1648918;85;21112;-84
2021/09/24 10:25:04;;;;;;;9.23;3.58;;;;;;;17.12;57.93;100326.72;1648895;87;21081;-85
2021/09/24 10:27:44;;;;;;;16.15;4.78;;;;;;;16.95;59.00;100322.52;1648993;87;21083;-85
2021/09/24 10:30:17;;;;;;;7.97;3.70;;;;;;;16.76;60.59;100322.11;1645452;87;21039;-85
2021/09/24 10:33:04;;;;;;;8.95;3.40;;;;;;;16.50;60.52;100317.80;1649015;87;21239;-85
2021/09/24 10:35:51;;;;;;;6.03;3.17;;;;;;;16.35;62.12;100307.23;1646835;87;21085;-87
2021/09/24 10:38:24;;;;;;;6.03;3.02;;;;;;;16.20;64.69;100302.93;1663041;85;21221;-89
2021/09/24 10:41:03;;;;;;;12.85;3.85;;;;;;;16.12;66.55;100301.75;1654375;86;21019;-91
2021/09/24 10:43:48;;;;;;;11.35;3.45;;;;;;;16.06;69.39;100289.38;1675104;84;21022;-91
2021/09/24 10:46:33;;;;;;;9.43;3.37;;;;;;;15.98;68.60;100292.00;1668706;86;21923;-90
2021/09/24 10:49:20;;;;;;;10.15;3.55;;;;;;;15.98;72.57;100285.20;1668548;86;21060;-92
2021/09/24 10:52:08;;;;;;;9.08;3.87;;;;;;;15.89;71.52;100281.83;1668849;86;21577;-91
2021/09/24 10:54:51;;;;;;;8.83;3.55;;;;;;;15.73;73.85;100280.52;1668487;83;21100;-90
2021/09/24 10:57:17;;;;;;;10.13;3.50;;;;;;;15.70;79.31;100277.60;1649378;86;21034;-90
2021/09/24 10:59:43;;;;;;;12.13;3.08;;;;;;;15.67;81.68;100282.52;1668791;86;21125;-91
2021/09/24 11:02:41;;;;;;;9.65;3.83;;;;;;;15.56;80.38;100276.20;1669101;83;21101;-90
2021/09/24 11:05:08;;;;;;;12.82;3.67;;;;;;;15.40;84.85;100271.06;1668493;86;21022;-90
2021/09/24 11:07:36;;;;;;;9.95;3.60;;;;;;;15.20;93.17;100262.73;1668787;86;21069;-92
2021/09/24 11:10:07;;;;;;;19.80;3.92;;;;;;;15.16;97.78;100269.06;1668616;86;21094;-89
2021/09/24 11:12:33;;;;;;;11.48;3.40;;;;;;;15.16;97.78;100269.06;1668737;86;21302;-88
2021/09/24 11:15:14;;;;;;;13.40;3.45;;;;;;;15.04;99.40;100269.54;1668477;86;21522;-90
2021/09/24 11:17:48;;;;;;;10.35;3.15;;;;;;;14.98;100.00;100268.02;1668529;86;21073;-90
2021/09/24 11:20:36;;;;;;;10.25;3.58;;;;;;;14.80;100.00;100268.87;1634623;87;21186;-90